createdAt,value
2023-03-20T00:00:18.577Z,6.25
2023-03-20T00:00:52.887Z,5.75
2023-03-20T00:01:29.908Z,5.20
2023-03-20T00:02:01.967Z,5.32
2023-03-20T00:02:36.169Z,5.53
2023-03-20T00:03:10.733Z,5.75
2023-03-20T00:03:44.070Z,5.65
2023-03-20T00:04:16.270Z,6.15
2023-03-20T00:04:48.454Z,5.05
2023-03-20T00:05:23.452Z,5.40
2023-03-20T00:05:55.250Z,7.00
2023-03-20T00:06:28.847Z,5.20
2023-03-20T00:07:01.723Z,5.88
2023-03-20T00:07:33.595Z,5.25
2023-03-20T00:08:06.448Z,5.03
2023-03-20T00:08:39.680Z,7.55
2023-03-20T00:09:13.517Z,5.20
2023-03-20T00:09:45.993Z,5.18
2023-03-20T00:10:20.321Z,6.75
2023-03-20T00:10:52.385Z,5.40
2023-03-20T00:11:29.413Z,4.55
2023-03-20T00:12:02.620Z,5.40
2023-03-20T00:12:34.553Z,5.32
2023-03-20T00:13:10.724Z,4.90
2023-03-20T00:13:43.629Z,5.20
2023-03-20T00:14:17.858Z,4.07
2023-03-20T00:14:49.760Z,5.35
2023-03-20T00:15:31.252Z,4.97
2023-03-20T00:16:05.616Z,6.90
2023-03-20T00:16:39.202Z,4.22
2023-03-20T00:17:20.703Z,4.38
2023-03-20T00:17:54.294Z,4.60
2023-03-20T00:18:26.585Z,4.57
2023-03-20T00:18:59.863Z,4.78
2023-03-20T00:19:31.673Z,5.22
2023-03-20T00:20:04.143Z,4.97
2023-03-20T00:20:37.192Z,5.13
2023-03-20T00:21:16.128Z,4.90
2023-03-20T00:21:48.517Z,5.30
2023-03-20T00:22:22.358Z,4.32
2023-03-20T00:22:54.461Z,5.60
2023-03-20T00:23:27.242Z,4.60
2023-03-20T00:23:59.316Z,4.57
2023-03-20T00:24:31.534Z,4.72
2023-03-20T00:25:04.927Z,4.53
2023-03-20T00:25:39.198Z,4.90
2023-03-20T00:26:14.651Z,4.55
2023-03-20T00:26:48.232Z,4.40
2023-03-20T00:27:20.333Z,6.13
2023-03-20T00:27:53.233Z,4.40
2023-03-20T00:28:37.375Z,4.43
2023-03-20T00:29:18.560Z,4.80
2023-03-20T00:29:50.440Z,4.43
2023-03-20T00:30:28.285Z,5.43
2023-03-20T00:31:01.157Z,4.65
2023-03-20T00:31:35.831Z,4.50
2023-03-20T00:32:11.922Z,4.32
2023-03-20T00:32:44.864Z,4.55
2023-03-20T00:33:18.058Z,4.65
2023-03-20T00:33:50.056Z,5.45
2023-03-20T00:34:25.662Z,4.53
2023-03-20T00:34:57.509Z,5.25
2023-03-20T00:35:31.132Z,4.50
2023-03-20T00:36:06.388Z,4.47
2023-03-20T00:36:38.269Z,5.90
2023-03-20T00:37:11.578Z,5.15
2023-03-20T00:37:44.588Z,4.28
2023-03-20T00:38:16.466Z,4.50
2023-03-20T00:38:48.347Z,4.28
2023-03-20T00:39:21.911Z,3.90
2023-03-20T00:39:53.812Z,4.60
2023-03-20T00:40:29.942Z,5.88
2023-03-20T00:41:03.106Z,3.70
2023-03-20T00:41:44.184Z,3.85
2023-03-20T00:42:21.469Z,4.43
2023-03-20T00:42:59.621Z,4.32
2023-03-20T00:43:31.786Z,6.03
2023-03-20T00:44:09.265Z,4.55
2023-03-20T00:44:49.292Z,4.65
2023-03-20T00:45:21.471Z,4.10
2023-03-20T00:45:53.448Z,5.60
2023-03-20T00:46:27.301Z,4.05
2023-03-20T00:47:01.025Z,4.50
2023-03-20T00:47:36.833Z,4.28
2023-03-20T00:48:14.207Z,4.45
2023-03-20T00:48:48.052Z,4.68
2023-03-20T00:49:22.757Z,3.85
2023-03-20T00:49:55.992Z,4.43
2023-03-20T00:50:31.235Z,4.20
2023-03-20T00:51:03.195Z,4.28
2023-03-20T00:51:36.273Z,3.85
2023-03-20T00:52:12.988Z,5.00
2023-03-20T00:52:45.060Z,4.18
2023-03-20T00:53:16.908Z,4.00
2023-03-20T00:53:49.735Z,3.63
2023-03-20T00:54:21.659Z,4.55
2023-03-20T00:54:53.566Z,4.30
2023-03-20T00:55:29.934Z,4.55
2023-03-20T00:56:02.499Z,4.18
2023-03-20T00:56:39.038Z,4.45
2023-03-20T00:57:15.335Z,4.30
2023-03-20T00:57:50.595Z,3.80
2023-03-20T00:58:22.454Z,3.55
2023-03-20T00:58:54.653Z,3.95
2023-03-20T00:59:31.323Z,4.32
2023-03-20T01:00:07.278Z,3.63
2023-03-20T01:00:42.287Z,4.22
2023-03-20T01:01:14.404Z,3.63
2023-03-20T01:01:46.778Z,3.72
2023-03-20T01:02:18.740Z,3.70
2023-03-20T01:02:53.008Z,3.78
2023-03-20T01:03:26.757Z,4.22
2023-03-20T01:04:00.149Z,3.33
2023-03-20T01:04:38.664Z,3.28
2023-03-20T01:05:10.494Z,3.95
2023-03-20T01:05:42.937Z,3.58
2023-03-20T01:06:15.707Z,3.80
2023-03-20T01:06:48.036Z,3.05
2023-03-20T01:07:21.693Z,3.88
2023-03-20T01:07:54.576Z,3.58
2023-03-20T01:08:26.742Z,3.40
2023-03-20T01:08:58.643Z,3.72
2023-03-20T01:09:31.708Z,4.00
2023-03-20T01:10:03.972Z,3.35
2023-03-20T01:10:35.908Z,3.70
2023-03-20T01:11:13.437Z,3.42
2023-03-20T01:11:46.255Z,3.50
2023-03-20T01:12:18.561Z,3.55
2023-03-20T01:12:51.565Z,3.22
2023-03-20T01:13:25.744Z,3.83
2023-03-20T01:13:57.942Z,3.75
2023-03-20T01:14:31.049Z,3.00
2023-03-20T01:15:03.012Z,3.60
2023-03-20T01:15:36.713Z,3.42
2023-03-20T01:16:20.368Z,4.18
2023-03-20T01:16:52.334Z,3.45
2023-03-20T01:17:26.317Z,3.70
2023-03-20T01:17:59.135Z,3.40
2023-03-20T01:18:31.248Z,4.45
2023-03-20T01:19:04.413Z,3.55
2023-03-20T01:19:37.516Z,3.25
2023-03-20T01:20:16.348Z,3.63
2023-03-20T01:20:50.354Z,2.90
2023-03-20T01:21:22.214Z,3.78
2023-03-20T01:21:54.101Z,3.25
2023-03-20T01:22:26.056Z,3.50
2023-03-20T01:22:58.857Z,3.58
2023-03-20T01:23:30.713Z,2.92
2023-03-20T01:24:02.868Z,3.45
2023-03-20T01:24:35.713Z,3.15
2023-03-20T01:25:08.397Z,4.03
2023-03-20T01:25:40.736Z,3.20
2023-03-20T01:26:25.076Z,3.10
2023-03-20T01:26:58.176Z,3.83
2023-03-20T01:27:30.175Z,2.97
2023-03-20T01:28:04.473Z,3.45
2023-03-20T01:28:36.334Z,4.22
2023-03-20T01:29:17.733Z,3.72
2023-03-20T01:29:50.670Z,3.03
2023-03-20T01:30:24.628Z,2.88
2023-03-20T01:30:56.581Z,2.88
2023-03-20T01:31:29.622Z,3.25
2023-03-20T01:32:01.610Z,3.42
2023-03-20T01:32:33.512Z,2.60
2023-03-20T01:33:14.410Z,3.22
2023-03-20T01:33:46.645Z,3.10
2023-03-20T01:34:21.935Z,3.00
2023-03-20T01:34:54.548Z,4.03
2023-03-20T01:35:28.042Z,3.70
2023-03-20T01:36:00.891Z,3.13
2023-03-20T01:36:32.695Z,3.35
2023-03-20T01:37:10.428Z,5.75
2023-03-20T01:37:43.300Z,4.05
2023-03-20T01:38:21.135Z,4.55
2023-03-20T01:38:56.174Z,3.38
2023-03-20T01:39:32.895Z,2.92
2023-03-20T01:40:14.313Z,4.80
2023-03-20T01:40:54.282Z,3.15
2023-03-20T01:41:28.128Z,3.45
2023-03-20T01:42:00.697Z,2.50
2023-03-20T01:42:33.349Z,3.67
2023-03-20T01:43:14.190Z,3.00
2023-03-20T01:43:46.446Z,3.25
2023-03-20T01:44:22.182Z,2.70
2023-03-20T01:44:54.989Z,3.58
2023-03-20T01:45:32.771Z,3.85
2023-03-20T01:46:18.289Z,3.60
2023-03-20T01:46:52.742Z,3.85
2023-03-20T01:47:26.079Z,2.70
2023-03-20T01:47:59.404Z,4.00
2023-03-20T01:48:51.983Z,3.50
2023-03-20T01:50:02.817Z,3.03
2023-03-20T01:50:36.615Z,3.25
2023-03-20T01:51:09.348Z,2.90
2023-03-20T01:51:41.147Z,3.15
2023-03-20T01:52:12.983Z,3.13
2023-03-20T01:52:45.434Z,3.58
2023-03-20T01:53:22.469Z,3.20
2023-03-20T01:53:58.634Z,2.80
2023-03-20T01:54:35.749Z,3.25
2023-03-20T01:55:07.999Z,2.90
2023-03-20T01:55:42.772Z,2.88
2023-03-20T01:56:17.566Z,2.95
2023-03-20T01:56:52.749Z,3.25
2023-03-20T01:57:26.900Z,3.53
2023-03-20T01:58:04.152Z,3.08
2023-03-20T01:58:42.092Z,3.88
2023-03-20T01:59:19.411Z,3.20
2023-03-20T01:59:55.399Z,3.80
2023-03-20T02:00:28.215Z,3.17
2023-03-20T02:01:00.617Z,3.25
2023-03-20T02:01:35.711Z,3.00
2023-03-20T02:02:09.404Z,3.45
2023-03-20T02:02:43.296Z,4.07
2023-03-20T02:03:16.770Z,2.97
2023-03-20T02:03:51.803Z,2.85
2023-03-20T02:04:29.323Z,2.80
2023-03-20T02:05:04.196Z,3.08
2023-03-20T02:05:39.630Z,2.97
2023-03-20T02:06:11.977Z,2.80
2023-03-20T02:06:45.087Z,2.70
2023-03-20T02:07:19.885Z,2.40
2023-03-20T02:08:02.556Z,2.60
2023-03-20T02:08:42.378Z,3.08
2023-03-20T02:09:14.474Z,3.30
2023-03-20T02:09:47.112Z,3.08
2023-03-20T02:10:19.943Z,3.00
2023-03-20T02:10:52.196Z,2.40
2023-03-20T02:11:25.309Z,3.30
2023-03-20T02:11:59.908Z,2.45
2023-03-20T02:12:32.321Z,2.35
2023-03-20T02:13:04.824Z,2.58
2023-03-20T02:13:37.738Z,2.92
2023-03-20T02:14:10.287Z,2.70
2023-03-20T02:14:43.099Z,2.65
2023-03-20T02:15:17.933Z,5.15
2023-03-20T02:16:05.607Z,2.63
2023-03-20T02:16:38.426Z,2.70
2023-03-20T02:17:10.822Z,2.60
2023-03-20T02:17:43.475Z,2.72
2023-03-20T02:18:16.279Z,3.00
2023-03-20T02:18:51.437Z,2.67
2023-03-20T02:19:30.341Z,2.10
2023-03-20T02:20:11.747Z,3.13
2023-03-20T02:20:57.535Z,2.65
2023-03-20T02:22:04.373Z,2.25
2023-03-20T02:23:14.746Z,2.70
2023-03-20T02:24:25.670Z,2.38
2023-03-20T02:25:32.240Z,2.50
2023-03-20T02:26:19.927Z,3.10
2023-03-20T02:27:04.555Z,2.53
2023-03-20T02:27:45.765Z,2.50
2023-03-20T02:29:00.973Z,2.90
2023-03-20T02:30:04.560Z,3.03
2023-03-20T02:30:48.365Z,2.30
2023-03-20T02:31:44.292Z,2.63
2023-03-20T02:32:55.804Z,2.92
2023-03-20T02:34:02.051Z,1.92
2023-03-20T02:34:56.814Z,2.10
2023-03-20T02:36:02.544Z,1.92
2023-03-20T02:37:06.780Z,2.45
2023-03-20T02:38:09.746Z,1.75
2023-03-20T02:39:12.789Z,2.72
2023-03-20T02:40:08.669Z,2.00
2023-03-20T02:40:46.533Z,2.47
2023-03-20T02:41:25.400Z,2.42
2023-03-20T02:42:06.472Z,2.53
2023-03-20T02:42:44.814Z,2.35
2023-03-20T02:43:23.010Z,2.20
2023-03-20T02:44:02.722Z,2.20
2023-03-20T02:44:43.680Z,1.92
2023-03-20T02:45:21.665Z,1.92
2023-03-20T02:46:01.376Z,2.17
2023-03-20T02:46:42.791Z,2.63
2023-03-20T02:47:22.744Z,2.00
2023-03-20T02:48:02.862Z,2.05
2023-03-20T02:48:46.430Z,1.85
2023-03-20T02:49:30.220Z,2.40
2023-03-20T02:50:14.503Z,2.25
2023-03-20T02:50:53.495Z,3.45
2023-03-20T02:51:36.663Z,2.67
2023-03-20T02:52:15.761Z,3.22
2023-03-20T02:52:56.960Z,2.67
2023-03-20T02:53:37.339Z,2.50
2023-03-20T02:54:15.785Z,1.85
2023-03-20T02:54:57.069Z,2.40
2023-03-20T02:55:33.973Z,2.35
2023-03-20T02:56:14.195Z,2.20
2023-03-20T02:56:54.993Z,2.30
2023-03-20T02:57:38.569Z,1.88
2023-03-20T02:58:15.632Z,2.40
2023-03-20T02:58:53.973Z,2.17
2023-03-20T02:59:33.059Z,2.00
2023-03-20T03:00:10.077Z,1.95
2023-03-20T03:00:50.052Z,1.80
2023-03-20T03:01:28.024Z,2.45
2023-03-20T03:02:05.878Z,2.00
2023-03-20T03:02:41.658Z,2.05
2023-03-20T03:03:17.340Z,1.80
2023-03-20T03:03:54.409Z,2.20
2023-03-20T03:04:30.914Z,2.15
2023-03-20T03:05:09.241Z,2.10
2023-03-20T03:05:45.263Z,2.05
2023-03-20T03:06:23.441Z,2.17
2023-03-20T03:06:58.552Z,2.13
2023-03-20T03:07:33.102Z,1.98
2023-03-20T03:08:10.792Z,1.70
2023-03-20T03:08:48.185Z,1.75
2023-03-20T03:09:23.317Z,2.10
2023-03-20T03:10:01.500Z,1.88
2023-03-20T03:10:36.824Z,1.90
2023-03-20T03:11:10.089Z,2.65
2023-03-20T03:11:47.153Z,1.90
2023-03-20T03:12:21.860Z,2.08
2023-03-20T03:12:56.695Z,1.60
2023-03-20T03:13:33.560Z,1.60
2023-03-20T03:14:07.117Z,1.75
2023-03-20T03:14:42.842Z,2.30
2023-03-20T03:15:20.764Z,2.00
2023-03-20T03:15:56.642Z,2.05
2023-03-20T03:16:33.499Z,2.35
2023-03-20T03:17:09.445Z,1.83
2023-03-20T03:17:44.605Z,1.90
2023-03-20T03:18:21.634Z,1.90
2023-03-20T03:19:03.568Z,4.32
2023-03-20T03:19:37.872Z,2.33
2023-03-20T03:20:21.229Z,2.03
2023-03-20T03:20:57.923Z,1.95
2023-03-20T03:21:31.372Z,1.73
2023-03-20T03:22:04.785Z,1.80
2023-03-20T03:22:37.102Z,2.03
2023-03-20T03:23:21.562Z,2.20
2023-03-20T03:23:54.453Z,1.90
2023-03-20T03:24:40.411Z,2.50
2023-03-20T03:25:13.099Z,2.50
2023-03-20T03:25:47.329Z,2.10
2023-03-20T03:26:24.846Z,2.65
2023-03-20T03:26:59.100Z,2.35
2023-03-20T03:27:37.816Z,2.35
2023-03-20T03:28:23.007Z,4.03
2023-03-20T03:28:57.860Z,2.35
2023-03-20T03:29:35.857Z,2.33
2023-03-20T03:30:12.308Z,2.30
2023-03-20T03:30:45.236Z,1.85
2023-03-20T03:31:20.454Z,2.35
2023-03-20T03:31:53.736Z,2.10
2023-03-20T03:32:32.663Z,2.20
2023-03-20T03:33:15.274Z,1.90
2023-03-20T03:33:49.825Z,2.67
2023-03-20T03:34:24.392Z,2.35
2023-03-20T03:34:56.722Z,2.65
2023-03-20T03:35:28.625Z,1.95
2023-03-20T03:36:09.205Z,3.30
2023-03-20T03:36:49.125Z,2.45
2023-03-20T03:37:30.215Z,2.30
2023-03-20T03:38:19.896Z,2.53
2023-03-20T03:38:58.423Z,3.03
2023-03-20T03:39:37.841Z,2.38
2023-03-20T03:40:25.972Z,2.53
2023-03-20T03:41:17.937Z,2.58
2023-03-20T03:41:53.658Z,2.28
2023-03-20T03:42:30.837Z,2.20
2023-03-20T03:43:07.038Z,2.75
2023-03-20T03:43:45.943Z,2.33
2023-03-20T03:44:23.463Z,2.60
2023-03-20T03:44:59.880Z,2.88
2023-03-20T03:45:37.774Z,4.60
2023-03-20T03:46:14.024Z,2.70
2023-03-20T03:46:50.707Z,2.75
2023-03-20T03:47:30.046Z,2.25
2023-03-20T03:48:06.972Z,2.78
2023-03-20T03:48:44.211Z,3.08
2023-03-20T03:49:22.247Z,2.72
2023-03-20T03:49:58.488Z,2.30
2023-03-20T03:50:33.831Z,3.80
2023-03-20T03:51:10.925Z,2.40
2023-03-20T03:51:48.187Z,3.25
2023-03-20T03:52:24.309Z,2.85
2023-03-20T03:52:59.635Z,2.70
2023-03-20T03:53:36.552Z,2.42
2023-03-20T03:54:13.955Z,3.10
2023-03-20T03:54:49.561Z,3.95
2023-03-20T03:55:25.412Z,2.30
2023-03-20T03:56:02.175Z,2.72
2023-03-20T03:56:38.692Z,2.80
2023-03-20T03:57:12.541Z,2.40
2023-03-20T03:57:49.446Z,2.80
2023-03-20T03:58:26.292Z,2.50
2023-03-20T03:59:01.196Z,2.78
2023-03-20T03:59:37.580Z,2.20
2023-03-20T04:00:15.383Z,2.60
2023-03-20T04:00:51.911Z,3.67
2023-03-20T04:01:27.238Z,2.55
2023-03-20T04:02:03.447Z,3.05
2023-03-20T04:02:36.020Z,2.83
2023-03-20T04:03:08.738Z,2.92
2023-03-20T04:03:44.524Z,3.20
2023-03-20T04:04:19.960Z,2.55
2023-03-20T04:04:54.442Z,3.45
2023-03-20T04:05:31.852Z,2.70
2023-03-20T04:06:06.445Z,4.30
2023-03-20T04:06:38.384Z,2.97
2023-03-20T04:07:11.341Z,6.75
2023-03-20T04:07:44.803Z,2.92
2023-03-20T04:08:16.624Z,3.03
2023-03-20T04:08:48.530Z,2.85
2023-03-20T04:09:22.690Z,4.03
2023-03-20T04:09:54.685Z,2.95
2023-03-20T04:10:26.659Z,2.42
2023-03-20T04:11:00.053Z,3.63
2023-03-20T04:11:32.052Z,2.35
2023-03-20T04:12:04.340Z,2.88
2023-03-20T04:12:38.122Z,3.50
2023-03-20T04:13:11.759Z,2.90
2023-03-20T04:13:44.026Z,3.15
2023-03-20T04:14:15.860Z,3.13
2023-03-20T04:14:47.684Z,2.22
2023-03-20T04:15:21.592Z,2.83
2023-03-20T04:15:53.634Z,3.28
2023-03-20T04:16:26.157Z,3.25
2023-03-20T04:16:59.001Z,2.90
2023-03-20T04:17:31.289Z,4.10
2023-03-20T04:18:03.143Z,2.28
2023-03-20T04:18:35.947Z,3.10
2023-03-20T04:19:07.776Z,4.00
2023-03-20T04:19:39.616Z,3.45
2023-03-20T04:20:13.601Z,3.45
2023-03-20T04:20:47.753Z,3.00
2023-03-20T04:21:19.872Z,2.92
2023-03-20T04:21:52.654Z,3.00
2023-03-20T04:22:24.649Z,2.83
2023-03-20T04:22:56.474Z,3.20
2023-03-20T04:23:28.352Z,3.75
2023-03-20T04:24:01.193Z,3.03
2023-03-20T04:24:34.361Z,4.30
2023-03-20T04:25:08.629Z,2.30
2023-03-20T04:25:41.808Z,5.05
2023-03-20T04:26:13.669Z,2.50
2023-03-20T04:26:45.518Z,3.58
2023-03-20T04:27:18.706Z,2.28
2023-03-20T04:27:50.891Z,2.67
2023-03-20T04:28:22.707Z,2.70
2023-03-20T04:28:55.790Z,2.40
2023-03-20T04:29:27.756Z,3.03
2023-03-20T04:29:59.648Z,3.15
2023-03-20T04:30:32.466Z,2.22
2023-03-20T04:31:04.969Z,1.83
2023-03-20T04:31:36.926Z,1.92
2023-03-20T04:32:09.751Z,2.40
2023-03-20T04:32:41.651Z,2.53
2023-03-20T04:33:13.587Z,2.13
2023-03-20T04:33:46.740Z,2.60
2023-03-20T04:34:18.603Z,2.05
2023-03-20T04:34:50.694Z,2.28
2023-03-20T04:35:23.546Z,2.50
2023-03-20T04:35:56.057Z,2.55
2023-03-20T04:36:28.946Z,2.72
2023-03-20T04:37:01.191Z,2.40
2023-03-20T04:37:33.051Z,2.97
2023-03-20T04:38:04.930Z,4.65
2023-03-20T04:38:37.919Z,2.45
2023-03-20T04:39:09.804Z,2.63
2023-03-20T04:39:43.163Z,2.20
2023-03-20T04:40:18.940Z,2.17
2023-03-20T04:40:51.060Z,1.88
2023-03-20T04:41:22.896Z,2.30
2023-03-20T04:41:55.742Z,2.15
2023-03-20T04:42:27.594Z,2.22
2023-03-20T04:42:59.418Z,1.77
2023-03-20T04:43:32.821Z,2.70
2023-03-20T04:44:05.046Z,2.38
2023-03-20T04:44:36.878Z,2.70
2023-03-20T04:45:11.044Z,2.20
2023-03-20T04:45:43.345Z,2.03
2023-03-20T04:46:15.465Z,2.70
2023-03-20T04:46:48.334Z,1.65
2023-03-20T04:47:20.352Z,1.60
2023-03-20T04:47:52.140Z,2.78
2023-03-20T04:48:25.292Z,2.25
2023-03-20T04:48:57.141Z,2.10
2023-03-20T04:49:29.205Z,1.98
2023-03-20T04:50:01.148Z,2.25
2023-03-20T04:50:34.038Z,3.03
2023-03-20T04:51:06.358Z,2.38
2023-03-20T04:51:38.207Z,1.73
2023-03-20T04:52:11.004Z,2.38
2023-03-20T04:52:42.863Z,2.50
2023-03-20T04:53:15.420Z,2.55
2023-03-20T04:53:48.515Z,1.77
2023-03-20T04:54:20.575Z,3.55
2023-03-20T04:54:53.785Z,2.33
2023-03-20T04:55:26.714Z,2.53
2023-03-20T04:56:01.393Z,2.05
2023-03-20T04:56:33.769Z,1.67
2023-03-20T04:57:06.604Z,2.13
2023-03-20T04:57:38.522Z,2.42
2023-03-20T04:58:10.475Z,2.75
2023-03-20T04:58:43.326Z,2.53
2023-03-20T04:59:15.189Z,3.08
2023-03-20T04:59:47.053Z,1.95
2023-03-20T05:00:20.496Z,1.80
2023-03-20T05:00:52.474Z,2.50
2023-03-20T05:01:24.781Z,3.33
2023-03-20T05:01:57.641Z,2.60
2023-03-20T05:02:29.510Z,2.50
2023-03-20T05:03:02.574Z,2.53
2023-03-20T05:03:35.192Z,2.58
2023-03-20T05:04:07.234Z,3.05
2023-03-20T05:04:40.268Z,2.20
2023-03-20T05:05:12.191Z,2.65
2023-03-20T05:05:44.090Z,2.38
2023-03-20T05:06:16.922Z,2.25
2023-03-20T05:06:49.477Z,5.57
2023-03-20T05:07:21.589Z,3.40
2023-03-20T05:07:54.689Z,2.90
2023-03-20T05:08:27.101Z,2.53
2023-03-20T05:08:59.401Z,2.83
2023-03-20T05:09:32.240Z,3.05
2023-03-20T05:10:06.053Z,3.10
2023-03-20T05:10:37.989Z,3.15
2023-03-20T05:11:11.437Z,3.58
2023-03-20T05:11:43.594Z,3.35
2023-03-20T05:12:15.811Z,3.20
2023-03-20T05:12:47.886Z,2.72
2023-03-20T05:13:20.747Z,3.70
2023-03-20T05:13:52.571Z,4.90
2023-03-20T05:14:24.508Z,3.53
2023-03-20T05:14:57.409Z,3.05
2023-03-20T05:15:29.306Z,2.63
2023-03-20T05:16:01.235Z,2.90
2023-03-20T05:16:34.188Z,3.22
2023-03-20T05:17:06.228Z,3.42
2023-03-20T05:17:38.110Z,2.50
2023-03-20T05:18:11.162Z,3.47
2023-03-20T05:18:43.056Z,2.67
2023-03-20T05:19:14.905Z,2.67
2023-03-20T05:19:47.703Z,3.30
2023-03-20T05:20:19.619Z,2.75
2023-03-20T05:20:51.726Z,3.40
2023-03-20T05:21:24.560Z,2.80
2023-03-20T05:21:56.420Z,2.85
2023-03-20T05:22:28.208Z,3.65
2023-03-20T05:23:00.999Z,3.20
2023-03-20T05:23:32.876Z,4.28
2023-03-20T05:24:05.475Z,3.00
2023-03-20T05:24:38.288Z,3.83
2023-03-20T05:25:11.460Z,3.65
2023-03-20T05:25:44.372Z,3.25
2023-03-20T05:26:17.289Z,3.60
2023-03-20T05:26:49.214Z,3.53
2023-03-20T05:27:21.113Z,3.38
2023-03-20T05:27:54.025Z,3.22
2023-03-20T05:28:26.642Z,3.90
2023-03-20T05:28:58.572Z,3.47
2023-03-20T05:29:31.371Z,3.10
2023-03-20T05:30:04.269Z,4.00
2023-03-20T05:30:36.303Z,3.88
2023-03-20T05:31:09.823Z,3.22
2023-03-20T05:31:41.660Z,3.28
2023-03-20T05:32:13.608Z,4.07
2023-03-20T05:32:45.767Z,5.72
2023-03-20T05:33:18.710Z,3.78
2023-03-20T05:33:50.578Z,3.40
2023-03-20T05:34:22.673Z,3.83
2023-03-20T05:34:55.615Z,4.07
2023-03-20T05:35:27.414Z,3.80
2023-03-20T05:35:59.281Z,4.18
2023-03-20T05:36:32.437Z,3.67
2023-03-20T05:37:04.674Z,3.80
2023-03-20T05:37:36.940Z,6.80
2023-03-20T05:38:09.715Z,4.72
2023-03-20T05:38:41.933Z,4.18
2023-03-20T05:39:13.772Z,3.92
2023-03-20T05:39:46.609Z,4.10
2023-03-20T05:40:24.056Z,4.47
2023-03-20T05:40:59.215Z,5.00
2023-03-20T05:41:32.087Z,4.95
2023-03-20T05:42:04.158Z,4.20
2023-03-20T05:42:35.977Z,4.10
2023-03-20T05:43:09.081Z,4.00
2023-03-20T05:43:40.989Z,4.35
2023-03-20T05:44:12.789Z,5.88
2023-03-20T05:44:45.673Z,3.63
2023-03-20T05:45:17.638Z,3.97
2023-03-20T05:45:49.489Z,4.25
2023-03-20T05:46:22.705Z,4.30
2023-03-20T05:46:54.514Z,3.85
2023-03-20T05:47:26.406Z,4.03
2023-03-20T05:47:59.202Z,3.60
2023-03-20T05:48:31.173Z,7.25
2023-03-20T05:49:03.121Z,9.85
2023-03-20T05:49:35.957Z,5.72
2023-03-20T05:50:08.886Z,4.32
2023-03-20T05:50:40.838Z,4.40
2023-03-20T05:51:13.628Z,3.95
2023-03-20T05:51:45.459Z,4.93
2023-03-20T05:52:17.304Z,5.25
2023-03-20T05:52:50.473Z,5.28
2023-03-20T05:53:22.388Z,4.78
2023-03-20T05:53:54.227Z,4.85
2023-03-20T05:54:26.975Z,4.65
2023-03-20T05:54:58.749Z,5.05
2023-03-20T05:55:33.708Z,4.82
2023-03-20T05:56:06.575Z,4.30
2023-03-20T05:56:38.413Z,4.25
2023-03-20T05:57:11.354Z,4.78
2023-03-20T05:57:43.279Z,3.78
2023-03-20T05:58:15.503Z,5.15
2023-03-20T05:58:48.309Z,4.38
2023-03-20T05:59:20.247Z,4.22
2023-03-20T05:59:52.058Z,4.00
2023-03-20T06:00:25.880Z,4.53
2023-03-20T06:00:57.837Z,5.15
2023-03-20T06:01:29.747Z,4.90
2023-03-20T06:02:02.568Z,4.20
2023-03-20T06:02:34.419Z,5.07
2023-03-20T06:03:06.905Z,4.80
2023-03-20T06:03:39.924Z,4.18
2023-03-20T06:04:11.882Z,4.28
2023-03-20T06:04:43.708Z,4.47
2023-03-20T06:05:16.701Z,4.75
2023-03-20T06:05:48.568Z,4.30
2023-03-20T06:06:21.330Z,5.55
2023-03-20T06:06:53.171Z,4.38
2023-03-20T06:07:25.138Z,5.00
2023-03-20T06:07:57.919Z,4.65
2023-03-20T06:08:30.388Z,5.25
2023-03-20T06:09:03.183Z,5.28
2023-03-20T06:09:35.019Z,5.50
2023-03-20T06:10:07.867Z,4.80
2023-03-20T06:10:42.032Z,5.47
2023-03-20T06:11:13.999Z,5.15
2023-03-20T06:11:46.489Z,5.20
2023-03-20T06:12:19.268Z,4.95
2023-03-20T06:12:51.353Z,4.82
2023-03-20T06:13:24.236Z,6.05
2023-03-20T06:13:58.057Z,5.43
2023-03-20T06:14:29.849Z,6.50
2023-03-20T06:15:01.771Z,6.40
2023-03-20T06:15:35.540Z,6.45
2023-03-20T06:16:08.930Z,5.75
2023-03-20T06:16:41.799Z,5.80
2023-03-20T06:17:13.667Z,5.93
2023-03-20T06:17:45.497Z,6.00
2023-03-20T06:18:18.352Z,6.05
2023-03-20T06:18:50.226Z,5.25
2023-03-20T06:19:22.036Z,5.85
2023-03-20T06:19:54.858Z,6.22
2023-03-20T06:20:27.161Z,6.07
2023-03-20T06:20:59.133Z,6.55
2023-03-20T06:21:31.956Z,5.85
2023-03-20T06:22:03.982Z,6.97
2023-03-20T06:22:35.867Z,6.38
2023-03-20T06:23:08.646Z,7.18
2023-03-20T06:23:40.755Z,6.05
2023-03-20T06:24:12.635Z,6.80
2023-03-20T06:24:45.398Z,10.05
2023-03-20T06:25:17.488Z,6.70
2023-03-20T06:25:51.246Z,6.15
2023-03-20T06:26:24.057Z,6.55
2023-03-20T06:26:56.381Z,6.30
2023-03-20T06:27:28.190Z,7.18
2023-03-20T06:28:01.002Z,7.70
2023-03-20T06:28:32.934Z,7.55
2023-03-20T06:29:04.809Z,7.95
2023-03-20T06:29:37.623Z,9.02
2023-03-20T06:30:10.998Z,8.25
2023-03-20T06:30:42.956Z,8.27
2023-03-20T06:31:16.439Z,7.78
2023-03-20T06:31:48.323Z,8.10
2023-03-20T06:32:20.193Z,7.57
2023-03-20T06:32:53.025Z,7.55
2023-03-20T06:33:24.928Z,7.20
2023-03-20T06:33:57.516Z,8.30
2023-03-20T06:34:30.170Z,7.35
2023-03-20T06:35:02.975Z,7.90
2023-03-20T06:35:35.470Z,7.07
2023-03-20T06:36:08.718Z,8.52
2023-03-20T06:36:43.324Z,9.10
2023-03-20T06:37:17.018Z,8.05
2023-03-20T06:37:48.991Z,7.70
2023-03-20T06:38:21.793Z,7.60
2023-03-20T06:38:55.707Z,7.50
2023-03-20T06:39:28.543Z,7.55
2023-03-20T06:40:01.355Z,7.75
2023-03-20T06:40:33.168Z,7.63
2023-03-20T06:41:06.978Z,7.53
2023-03-20T06:41:40.330Z,7.97
2023-03-20T06:42:15.045Z,8.90
2023-03-20T06:42:48.017Z,7.45
2023-03-20T06:43:21.261Z,8.25
2023-03-20T06:43:53.117Z,8.05
2023-03-20T06:44:25.194Z,7.60
2023-03-20T06:44:58.032Z,7.25
2023-03-20T06:45:29.860Z,7.93
2023-03-20T06:46:01.678Z,7.93
2023-03-20T06:46:34.581Z,8.85
2023-03-20T06:47:06.656Z,7.30
2023-03-20T06:47:39.447Z,7.50
2023-03-20T06:48:11.314Z,8.10
2023-03-20T06:48:44.155Z,8.63
2023-03-20T06:49:16.804Z,7.82
2023-03-20T06:49:49.466Z,7.50
2023-03-20T06:50:22.269Z,9.02
2023-03-20T06:50:54.096Z,8.70
2023-03-20T06:51:26.076Z,9.00
2023-03-20T06:51:59.253Z,7.90
2023-03-20T06:52:31.062Z,9.93
2023-03-20T06:53:04.136Z,8.55
2023-03-20T06:53:36.526Z,8.43
2023-03-20T06:54:08.385Z,8.00
2023-03-20T06:54:42.013Z,8.20
2023-03-20T06:55:13.880Z,7.63
2023-03-20T06:55:48.686Z,6.90
2023-03-20T06:56:21.902Z,8.32
2023-03-20T06:56:53.740Z,8.38
2023-03-20T06:57:26.897Z,8.80
2023-03-20T06:57:58.787Z,7.75
2023-03-20T06:58:31.611Z,7.60
2023-03-20T06:59:03.470Z,7.03
2023-03-20T06:59:36.245Z,7.55
2023-03-20T07:00:10.332Z,8.00
2023-03-20T07:00:42.284Z,8.18
2023-03-20T07:01:17.052Z,8.55
2023-03-20T07:01:49.893Z,9.27
2023-03-20T07:02:21.972Z,7.53
2023-03-20T07:02:54.372Z,8.05
2023-03-20T07:03:27.234Z,8.57
2023-03-20T07:03:59.129Z,7.53
2023-03-20T07:04:31.715Z,7.60
2023-03-20T07:05:04.992Z,8.48
2023-03-20T07:05:38.693Z,7.88
2023-03-20T07:06:11.608Z,7.65
2023-03-20T07:06:44.376Z,8.27
2023-03-20T07:07:17.070Z,7.78
2023-03-20T07:07:49.872Z,6.82
2023-03-20T07:08:21.785Z,8.45
2023-03-20T07:08:54.718Z,8.05
2023-03-20T07:09:26.759Z,9.23
2023-03-20T07:09:58.660Z,8.07
2023-03-20T07:10:31.889Z,7.88
2023-03-20T07:11:04.374Z,8.35
2023-03-20T07:11:37.529Z,8.07
2023-03-20T07:12:14.385Z,8.30
2023-03-20T07:12:46.320Z,8.68
2023-03-20T07:13:19.248Z,9.63
2023-03-20T07:13:51.093Z,7.28
2023-03-20T07:14:23.856Z,7.07
2023-03-20T07:14:56.197Z,8.65
2023-03-20T07:15:29.917Z,8.20
2023-03-20T07:16:04.862Z,7.28
2023-03-20T07:16:37.729Z,10.45
2023-03-20T07:17:11.584Z,8.68
2023-03-20T07:17:43.387Z,7.40
2023-03-20T07:18:15.191Z,8.38
2023-03-20T07:18:48.305Z,8.50
2023-03-20T07:19:20.343Z,8.07
2023-03-20T07:19:52.597Z,7.78
2023-03-20T07:20:25.499Z,7.82
2023-03-20T07:21:02.217Z,7.95
2023-03-20T07:21:34.646Z,8.65
2023-03-20T07:22:09.331Z,9.90
2023-03-20T07:22:42.210Z,14.30
2023-03-20T07:23:15.183Z,8.88
2023-03-20T07:23:47.033Z,13.77
2023-03-20T07:24:18.965Z,32.55
2023-03-20T07:24:51.802Z,26.48
2023-03-20T07:25:35.348Z,13.40
2023-03-20T07:26:14.790Z,8.40
2023-03-20T07:26:48.014Z,7.65
2023-03-20T07:27:21.426Z,8.70
2023-03-20T07:27:53.235Z,6.95
2023-03-20T07:28:25.123Z,8.57
2023-03-20T07:28:57.998Z,7.35
2023-03-20T07:29:29.814Z,7.68
2023-03-20T07:30:02.764Z,8.95
2023-03-20T07:30:34.767Z,9.05
2023-03-20T07:31:06.832Z,8.05
2023-03-20T07:31:39.693Z,9.00
2023-03-20T07:32:11.746Z,8.35
2023-03-20T07:32:44.920Z,9.05
2023-03-20T07:33:16.801Z,7.07
2023-03-20T07:33:48.666Z,8.35
2023-03-20T07:34:21.504Z,7.75
2023-03-20T07:34:53.547Z,9.50
2023-03-20T07:35:25.720Z,8.93
2023-03-20T07:35:58.729Z,8.20
2023-03-20T07:36:30.569Z,7.57
2023-03-20T07:37:02.397Z,6.50
2023-03-20T07:37:35.140Z,7.53
2023-03-20T07:38:07.059Z,7.55
2023-03-20T07:38:39.869Z,6.80
2023-03-20T07:39:13.858Z,7.25
2023-03-20T07:39:46.701Z,8.18
2023-03-20T07:40:18.952Z,8.82
2023-03-20T07:40:53.228Z,7.95
2023-03-20T07:41:26.199Z,7.53
2023-03-20T07:41:59.479Z,8.00
2023-03-20T07:42:32.379Z,7.13